createdAt,value
2022-10-13T00:05:52.509Z,13.43
2022-10-13T00:12:54.321Z,12.70
2022-10-13T00:19:56.299Z,12.27
2022-10-13T00:26:58.005Z,12.93
2022-10-13T00:34:01.200Z,12.90
2022-10-13T00:41:03.137Z,11.63
2022-10-13T00:48:05.028Z,11.10
2022-10-13T00:55:08.116Z,10.45
2022-10-13T01:02:10.038Z,11.80
2022-10-13T01:09:11.844Z,10.43
2022-10-13T01:16:19.829Z,10.82
2022-10-13T01:23:33.926Z,11.25
2022-10-13T01:30:38.116Z,10.93
2022-10-13T01:37:58.371Z,10.15
2022-10-13T01:45:02.033Z,10.05
2022-10-13T01:52:06.795Z,11.05
2022-10-13T01:59:10.840Z,11.45
2022-10-13T02:06:14.983Z,10.35
2022-10-13T02:13:18.097Z,10.45
2022-10-13T02:20:20.598Z,11.80
2022-10-13T02:27:23.399Z,10.25
2022-10-13T02:34:25.206Z,11.15
2022-10-13T02:41:26.951Z,11.30
2022-10-13T02:48:28.657Z,10.82
2022-10-13T02:55:30.366Z,11.07
2022-10-13T03:02:32.106Z,11.27
2022-10-13T03:09:34.469Z,10.48
2022-10-13T03:16:36.164Z,10.80
2022-10-13T03:23:37.908Z,10.95
2022-10-13T03:30:39.656Z,11.65
2022-10-13T03:37:41.546Z,11.70
2022-10-13T03:44:43.406Z,11.40
2022-10-13T03:51:45.441Z,11.68
2022-10-13T03:58:47.235Z,10.88
2022-10-13T04:05:49.176Z,11.15
2022-10-13T04:12:50.905Z,10.23
2022-10-13T04:19:52.628Z,11.15
2022-10-13T04:26:54.388Z,10.48
2022-10-13T04:33:56.606Z,12.07
2022-10-13T04:40:58.835Z,11.02
2022-10-13T04:48:00.896Z,12.02
2022-10-13T04:55:03.048Z,10.95
2022-10-13T05:02:04.828Z,10.65
2022-10-13T05:09:06.549Z,12.23
2022-10-13T05:16:09.962Z,11.88
2022-10-13T05:23:11.711Z,13.68
2022-10-13T05:30:13.686Z,11.85
2022-10-13T05:37:17.434Z,13.10
2022-10-13T05:44:19.580Z,11.57
2022-10-13T05:51:24.511Z,12.80
2022-10-13T05:58:26.432Z,12.45
2022-10-13T06:05:28.528Z,13.60
2022-10-13T06:12:30.219Z,13.43
2022-10-13T06:19:31.883Z,12.27
2022-10-13T06:26:33.688Z,13.70
2022-10-13T06:33:35.569Z,11.38
2022-10-13T06:40:37.308Z,12.02
2022-10-13T06:47:39.146Z,11.93
2022-10-13T06:54:40.936Z,12.95
2022-10-13T07:01:42.850Z,14.48
2022-10-13T07:08:44.977Z,16.15
2022-10-13T07:15:46.875Z,13.73
2022-10-13T07:22:48.667Z,12.73
2022-10-13T07:29:50.474Z,14.30
2022-10-13T07:36:52.340Z,15.80
2022-10-13T07:43:57.458Z,13.27
2022-10-13T07:50:59.217Z,15.10
2022-10-13T07:58:05.214Z,13.10
2022-10-13T08:05:07.082Z,12.95
2022-10-13T08:12:08.924Z,12.88
2022-10-13T08:19:10.747Z,12.00
2022-10-13T08:26:21.482Z,9.68
2022-10-13T08:33:23.593Z,8.98
2022-10-13T08:40:25.489Z,9.13
2022-10-13T08:47:27.316Z,8.25
2022-10-13T08:54:29.116Z,7.95
2022-10-13T09:01:32.594Z,8.40
2022-10-13T09:08:39.746Z,8.18
2022-10-13T09:15:45.855Z,8.73
2022-10-13T09:23:05.163Z,6.75
2022-10-13T09:30:39.627Z,7.55
2022-10-13T09:37:41.305Z,6.60
2022-10-13T09:44:43.259Z,5.97
2022-10-13T09:51:45.778Z,4.57
2022-10-13T09:59:05.954Z,4.45
2022-10-13T10:06:08.217Z,4.57
2022-10-13T10:13:11.521Z,5.00
2022-10-13T10:20:17.013Z,3.78
2022-10-13T10:27:21.836Z,3.05
2022-10-13T10:34:23.707Z,3.13
2022-10-13T10:41:34.250Z,2.45
2022-10-13T10:48:38.103Z,2.45
2022-10-13T10:55:48.085Z,2.10
2022-10-13T11:02:53.746Z,2.35
2022-10-13T11:09:57.507Z,2.40
2022-10-13T11:17:03.149Z,2.80
2022-10-13T11:24:05.549Z,2.50
2022-10-13T11:31:07.447Z,3.22
2022-10-13T11:38:23.507Z,2.88
2022-10-13T11:45:51.615Z,2.88
2022-10-13T11:52:56.086Z,2.45
2022-10-13T11:59:58.257Z,3.17
2022-10-13T12:07:02.947Z,2.80
2022-10-13T12:14:06.487Z,2.88
2022-10-13T12:21:20.168Z,2.78
2022-10-13T12:28:22.606Z,2.95
2022-10-13T12:35:27.012Z,2.78
2022-10-13T12:42:30.666Z,2.50
2022-10-13T12:49:33.721Z,2.58
2022-10-13T12:56:35.701Z,2.72
2022-10-13T13:03:38.542Z,3.30
2022-10-13T13:10:53.796Z,2.80
2022-10-13T13:18:15.439Z,2.72
2022-10-13T13:25:17.268Z,3.33
2022-10-13T13:32:20.472Z,2.50
2022-10-13T13:39:22.250Z,2.50
2022-10-13T13:46:25.139Z,2.47
2022-10-13T13:53:27.832Z,2.50
2022-10-13T14:00:31.950Z,2.40
2022-10-13T14:07:33.881Z,3.00
2022-10-13T14:14:35.935Z,3.20
2022-10-13T14:21:37.801Z,3.00
2022-10-13T14:28:43.088Z,2.67
2022-10-13T14:35:45.127Z,2.58
2022-10-13T14:42:46.963Z,4.50
2022-10-13T14:49:48.756Z,3.25
2022-10-13T14:56:50.810Z,3.33
2022-10-13T15:03:52.807Z,3.95
2022-10-13T15:11:04.184Z,3.75
2022-10-13T15:18:06.854Z,3.92
2022-10-13T15:25:12.185Z,5.20
2022-10-13T15:32:18.782Z,4.53
2022-10-13T15:39:21.252Z,4.72
2022-10-13T15:46:24.758Z,5.18
2022-10-13T15:53:26.816Z,5.32
2022-10-13T16:00:31.719Z,5.40
2022-10-13T16:07:33.818Z,5.47
2022-10-13T16:14:35.874Z,5.60
2022-10-13T16:21:37.794Z,6.18
2022-10-13T16:28:39.902Z,7.10
2022-10-13T16:35:41.729Z,6.63
2022-10-13T16:42:43.627Z,6.72
2022-10-13T16:49:45.399Z,6.88
2022-10-13T16:56:47.728Z,6.90
2022-10-13T17:03:50.783Z,7.25
2022-10-13T17:10:57.994Z,7.07
2022-10-13T17:18:01.284Z,7.37
2022-10-13T17:25:04.513Z,8.25
2022-10-13T17:32:06.803Z,7.38
2022-10-13T17:39:09.974Z,7.30
2022-10-13T17:46:39.030Z,6.57
2022-10-13T17:53:42.741Z,7.50
2022-10-13T18:01:13.035Z,8.07
2022-10-13T18:08:08.522Z,6.70
2022-10-13T18:15:11.329Z,6.85
2022-10-13T18:22:15.438Z,6.70
2022-10-13T18:29:18.469Z,6.60
2022-10-13T18:36:24.288Z,6.78
2022-10-13T18:43:28.170Z,6.88
2022-10-13T18:50:30.398Z,7.22
2022-10-13T18:57:35.973Z,6.75
2022-10-13T19:04:38.810Z,7.03
2022-10-13T19:11:41.540Z,7.05
2022-10-13T19:18:44.059Z,6.57
2022-10-13T19:25:46.637Z,7.03
2022-10-13T19:32:50.756Z,7.43
2022-10-13T19:39:53.342Z,6.53
2022-10-13T19:46:56.493Z,7.95
2022-10-13T19:54:02.777Z,6.93
2022-10-13T20:01:07.426Z,6.40
2022-10-13T20:08:11.254Z,7.13
2022-10-13T20:15:13.232Z,5.80
2022-10-13T20:22:14.938Z,6.90
2022-10-13T20:29:17.067Z,6.65
2022-10-13T20:36:19.477Z,6.63
2022-10-13T20:43:25.625Z,5.57
2022-10-13T20:50:28.105Z,5.25
2022-10-13T20:57:30.096Z,5.80
2022-10-13T21:04:31.869Z,6.07
2022-10-13T21:11:34.277Z,7.35
2022-10-13T21:18:36.120Z,6.78
2022-10-13T21:25:38.351Z,5.97
2022-10-13T21:32:40.250Z,5.55
2022-10-13T21:39:42.148Z,6.15
2022-10-13T21:46:43.883Z,6.28
2022-10-13T21:53:50.254Z,5.47
2022-10-13T22:00:52.189Z,5.35
2022-10-13T22:07:54.292Z,5.90
2022-10-13T22:14:55.994Z,6.15
2022-10-13T22:21:58.816Z,5.53
2022-10-13T22:29:01.814Z,6.97
2022-10-13T22:36:10.497Z,6.70
2022-10-13T22:43:12.273Z,5.72
2022-10-13T22:50:14.199Z,6.75
2022-10-13T22:57:16.134Z,6.68
2022-10-13T23:04:17.892Z,6.00
2022-10-13T23:11:19.682Z,6.80
2022-10-13T23:18:21.571Z,6.15
2022-10-13T23:25:23.672Z,6.55
2022-10-13T23:32:25.586Z,5.97
2022-10-13T23:39:27.335Z,5.97
2022-10-13T23:46:29.119Z,5.75
2022-10-13T23:53:33.685Z,6.40
